Time;durP1;ratioP1;P1;durP2;ratioP2;P2;SDS_P1;SDS_P2;PMS_P1;PMS_P2;Temp;Humidity;BMP_temperature;BMP_pressure;BME280_temperature;BME280_humidity;BME280_pressure;Samples;Min_cycle;Max_cycle;Signal;HPM_P1;HPM_P2
2023/06/19 00:00:30;;;;;;;6.73;6.13;;;23.10;68.90;;;;;;4987661;28;20674;-84
2023/06/19 00:02:56;;;;;;;6.20;5.60;;;23.00;70.10;;;;;;4987128;28;20217;-81
2023/06/19 00:05:23;;;;;;;6.50;5.90;;;23.00;72.80;;;;;;4997017;28;20432;-83
2023/06/19 00:07:48;;;;;;;8.13;6.67;;;22.90;75.80;;;;;;4998366;28;20211;-84
2023/06/19 00:10:14;;;;;;;7.10;6.23;;;22.90;76.20;;;;;;5005391;28;20505;-83
2023/06/19 00:12:39;;;;;;;7.60;6.03;;;22.90;77.20;;;;;;4996542;28;20183;-83
2023/06/19 00:15:09;;;;;;;7.70;5.83;;;22.80;77.80;;;;;;4997284;28;20174;-83
2023/06/19 00:17:37;;;;;;;6.50;5.90;;;22.80;77.50;;;;;;4997943;28;20564;-83
2023/06/19 00:20:04;;;;;;;6.60;6.00;;;22.80;78.60;;;;;;4993104;28;20461;-84
2023/06/19 00:22:29;;;;;;;6.10;5.50;;;22.80;79.40;;;;;;4995176;28;20815;-83
2023/06/19 00:24:55;;;;;;;5.77;5.27;;;22.70;81.10;;;;;;4998841;28;20430;-83
2023/06/19 00:27:20;;;;;;;6.57;5.90;;;22.70;83.70;;;;;;4997490;28;20233;-83
2023/06/19 00:29:46;;;;;;;8.93;5.90;;;22.70;85.70;;;;;;5001467;28;20210;-84
2023/06/19 00:32:11;;;;;;;6.27;5.67;;;22.60;88.10;;;;;;4997919;28;20653;-83
2023/06/19 00:34:37;;;;;;;7.27;6.10;;;22.60;90.40;;;;;;4997458;28;20660;-83
2023/06/19 00:37:03;;;;;;;7.10;6.43;;;22.60;91.70;;;;;;4998562;28;20195;-84
2023/06/19 00:39:29;;;;;;;6.57;6.00;;;22.60;93.10;;;;;;4995884;28;20249;-83
2023/06/19 00:41:55;;;;;;;6.53;5.83;;;22.50;94.00;;;;;;4997991;28;20505;-83
2023/06/19 00:44:21;;;;;;;6.23;5.63;;;22.60;93.80;;;;;;4996842;28;20184;-83
2023/06/19 00:46:51;;;;;;;6.40;5.80;;;22.60;94.40;;;;;;5001426;28;20469;-83
2023/06/19 00:49:17;;;;;;;6.27;5.70;;;22.60;94.60;;;;;;4998551;28;20494;-84
2023/06/19 00:51:43;;;;;;;5.77;5.00;;;22.60;94.80;;;;;;4998704;28;20861;-83
2023/06/19 00:54:08;;;;;;;5.67;5.17;;;22.50;95.20;;;;;;4992770;28;20457;-83
2023/06/19 00:56:37;;;;;;;6.30;5.70;;;22.50;96.70;;;;;;4994018;28;20200;-83
2023/06/19 00:59:07;;;;;;;7.30;6.00;;;22.50;97.10;;;;;;4997299;28;20227;-82
2023/06/19 01:01:33;;;;;;;5.87;5.37;;;22.50;97.70;;;;;;4996321;28;21002;-83
2023/06/19 01:03:59;;;;;;;5.83;5.33;;;22.50;97.40;;;;;;4998749;28;20939;-83
2023/06/19 01:06:38;;;;;;;6.20;5.53;;;22.50;97.80;;;;;;4996478;28;20469;-83
2023/06/19 01:09:07;;;;;;;6.77;6.03;;;22.50;98.00;;;;;;4996786;28;20212;-84
2023/06/19 01:11:39;;;;;;;6.23;5.73;;;22.50;98.50;;;;;;4994871;28;20532;-83
2023/06/19 01:14:12;;;;;;;5.87;5.33;;;22.60;98.30;;;;;;4997801;28;20421;-83
2023/06/19 01:16:38;;;;;;;6.20;5.60;;;22.60;98.60;;;;;;4997316;28;20435;-80
2023/06/19 01:19:09;;;;;;;5.83;5.33;;;22.60;98.20;;;;;;4997981;28;20441;-83
2023/06/19 01:21:35;;;;;;;6.10;5.00;;;22.60;99.10;;;;;;4996602;28;21193;-83
2023/06/19 01:24:01;;;;;;;5.83;5.23;;;22.60;98.20;;;;;;4995999;28;20447;-83
2023/06/19 01:26:27;;;;;;;6.23;5.57;;;22.60;99.00;;;;;;4995496;28;20464;-84
2023/06/19 01:28:54;;;;;;;6.07;5.47;;;22.60;98.80;;;;;;4993143;28;20226;-84
2023/06/19 01:31:36;;;;;;;6.03;5.43;;;22.60;98.70;;;;;;4997687;28;20449;-83
2023/06/19 01:34:06;;;;;;;6.10;5.50;;;22.70;97.90;;;;;;4997676;28;20792;-82
2023/06/19 01:36:32;;;;;;;11.73;5.70;;;22.70;98.30;;;;;;4994709;28;21071;-82
2023/06/19 01:38:59;;;;;;;7.57;5.53;;;22.70;98.30;;;;;;4996144;28;20446;-84
2023/06/19 01:41:25;;;;;;;6.37;5.63;;;22.70;99.00;;;;;;4997910;28;20509;-83
2023/06/19 01:43:53;;;;;;;9.53;5.90;;;22.70;99.80;;;;;;4997810;28;20448;-83
2023/06/19 01:46:18;;;;;;;6.30;5.67;;;22.70;99.90;;;;;;5011213;28;20465;-83
2023/06/19 01:48:44;;;;;;;6.10;5.50;;;22.70;99.60;;;;;;4999806;28;20544;-83
2023/06/19 01:51:10;;;;;;;5.47;4.60;;;22.70;99.30;;;;;;5000454;28;20180;-82
2023/06/19 01:53:36;;;;;;;7.83;4.87;;;22.70;98.80;;;;;;4999767;28;20186;-82
2023/06/19 01:56:01;;;;;;;5.13;4.63;;;22.70;97.90;;;;;;5000995;28;20439;-82
2023/06/19 01:58:27;;;;;;;9.53;5.40;;;22.70;97.40;;;;;;4999661;28;20556;-82
2023/06/19 02:00:53;;;;;;;6.80;5.23;;;22.70;97.70;;;;;;4998459;28;20264;-84
2023/06/19 02:03:18;;;;;;;6.00;5.10;;;22.70;97.00;;;;;;5001743;28;20192;-82
2023/06/19 02:05:44;;;;;;;6.33;5.53;;;22.80;96.20;;;;;;5003357;28;20433;-84
2023/06/19 02:08:09;;;;;;;4.73;4.23;;;22.70;95.90;;;;;;5002927;28;20210;-83
2023/06/19 02:10:35;;;;;;;8.87;5.20;;;22.70;95.90;;;;;;5001485;28;20202;-84
2023/06/19 02:13:00;;;;;;;5.30;4.33;;;22.70;96.50;;;;;;5003330;28;20190;-84
2023/06/19 02:15:26;;;;;;;8.07;4.67;;;22.70;97.30;;;;;;5003763;28;20182;-83
2023/06/19 02:17:54;;;;;;;4.97;4.47;;;22.70;97.90;;;;;;4998246;28;20661;-84
2023/06/19 02:20:21;;;;;;;4.13;3.50;;;22.70;99.40;;;;;;5000394;28;20605;-83
2023/06/19 02:22:46;;;;;;;5.57;4.00;;;22.60;99.90;;;;;;5001601;28;20448;-84
2023/06/19 02:25:12;;;;;;;7.37;4.53;;;22.60;99.90;;;;;;5002820;28;20424;-84
2023/06/19 02:27:37;;;;;;;5.07;4.63;;;22.50;99.90;;;;;;5001873;28;20209;-84
2023/06/19 02:30:04;;;;;;;5.23;4.33;;;22.50;99.90;;;;;;5002350;28;20214;-84
2023/06/19 02:32:30;;;;;;;4.80;4.20;;;22.40;99.90;;;;;;5001828;28;20189;-84
2023/06/19 02:34:55;;;;;;;4.33;3.80;;;22.40;99.90;;;;;;4997518;28;20452;-84
2023/06/19 02:37:21;;;;;;;4.97;4.10;;;22.30;99.90;;;;;;5002153;28;20227;-84
2023/06/19 02:39:47;;;;;;;5.20;4.00;;;22.20;99.90;;;;;;5003331;28;20212;-84
2023/06/19 02:42:12;;;;;;;5.80;4.27;;;22.20;99.90;;;;;;5002341;28;20745;-84
2023/06/19 02:44:38;;;;;;;4.73;4.13;;;22.10;99.90;;;;;;5001890;28;20275;-83
2023/06/19 02:47:03;;;;;;;4.70;4.20;;;22.10;99.90;;;;;;5003190;28;20212;-84
2023/06/19 02:49:29;;;;;;;4.90;4.40;;;22.00;99.90;;;;;;5000120;28;20338;-84
2023/06/19 02:51:55;;;;;;;7.03;3.87;;;22.00;99.90;;;;;;5001903;28;20458;-84
2023/06/19 02:54:21;;;;;;;4.23;3.70;;;21.90;99.90;;;;;;5001646;28;20180;-84
2023/06/19 02:56:46;;;;;;;4.70;3.80;;;21.80;99.90;;;;;;5001394;28;20440;-83
2023/06/19 02:59:12;;;;;;;4.20;3.80;;;21.80;99.90;;;;;;5001693;28;20701;-83
2023/06/19 03:01:37;;;;;;;4.97;4.07;;;21.70;99.90;;;;;;5002137;28;20203;-84
2023/06/19 03:04:03;;;;;;;4.30;3.77;;;21.60;99.90;;;;;;5002164;28;20190;-83
2023/06/19 03:06:28;;;;;;;6.40;4.17;;;21.60;99.90;;;;;;5001134;28;20196;-84
2023/06/19 03:08:54;;;;;;;4.57;3.37;;;21.50;99.90;;;;;;4999210;28;20577;-84
2023/06/19 03:11:19;;;;;;;7.13;3.47;;;21.50;99.90;;;;;;5000244;28;20672;-84
2023/06/19 03:13:51;;;;;;;7.10;3.67;;;21.40;99.90;;;;;;5000438;28;20192;-84
2023/06/19 03:16:16;;;;;;;5.17;3.73;;;21.40;99.90;;;;;;5001861;28;20227;-84
2023/06/19 03:18:46;;;;;;;6.50;3.47;;;21.30;99.90;;;;;;5001500;28;20438;-83
2023/06/19 03:21:13;;;;;;;8.60;3.40;;;21.30;99.90;;;;;;5002092;28;20198;-84
2023/06/19 03:23:40;;;;;;;5.90;3.70;;;21.20;99.90;;;;;;5001324;28;20437;-84
2023/06/19 03:26:06;;;;;;;7.10;3.67;;;21.20;1.00;;;;;;4995605;28;20434;-83
2023/06/19 03:28:32;;;;;;;3.50;3.20;;;21.10;1.00;;;;;;5000356;28;20477;-83
2023/06/19 03:30:58;;;;;;;3.40;3.00;;;21.10;1.00;;;;;;5002104;28;20829;-84
2023/06/19 03:33:24;;;;;;;3.47;3.10;;;21.10;1.00;;;;;;5006490;28;20187;-84
2023/06/19 03:35:49;;;;;;;3.80;3.03;;;21.10;1.00;;;;;;5001023;28;20457;-84
2023/06/19 03:38:15;;;;;;;4.00;2.97;;;21.10;1.00;;;;;;5000947;28;20188;-83
2023/06/19 03:40:40;;;;;;;3.93;2.73;;;21.00;1.00;;;;;;4999889;28;20575;-84
2023/06/19 03:43:06;;;;;;;3.20;2.90;;;21.00;1.00;;;;;;5007039;28;20190;-85
2023/06/19 03:45:32;;;;;;;4.80;3.37;;;21.00;1.00;;;;;;5000994;28;20187;-84
2023/06/19 03:47:57;;;;;;;3.90;3.47;;;20.90;1.00;;;;;;4997651;28;20215;-83
2023/06/19 03:50:23;;;;;;;4.03;2.80;;;20.90;1.00;;;;;;5000231;28;20227;-84
2023/06/19 03:52:48;;;;;;;4.77;3.10;;;20.90;1.00;;;;;;5000902;28;20187;-84
2023/06/19 03:55:14;;;;;;;3.80;2.90;;;20.90;1.00;;;;;;4999819;28;20208;-84
2023/06/19 03:57:39;;;;;;;4.10;2.77;;;20.90;1.00;;;;;;5001058;28;20250;-82
2023/06/19 04:00:07;;;;;;;3.67;2.30;;;20.90;13.20;;;;;;4997227;28;20317;-84
2023/06/19 04:02:33;;;;;;;4.30;3.20;;;20.90;36.50;;;;;;5000420;28;20217;-84
2023/06/19 04:04:59;;;;;;;4.93;2.83;;;20.90;55.40;;;;;;5001377;28;20936;-82
2023/06/19 04:07:24;;;;;;;3.17;2.67;;;20.90;77.10;;;;;;5003947;28;20467;-83
2023/06/19 04:09:50;;;;;;;3.40;3.07;;;21.00;76.70;;;;;;5000970;28;20217;-84
2023/06/19 04:12:15;;;;;;;4.40;3.00;;;21.00;75.20;;;;;;5001301;28;20195;-84
2023/06/19 04:14:41;;;;;;;4.60;3.27;;;21.00;76.80;;;;;;4997687;28;20196;-84
2023/06/19 04:17:06;;;;;;;4.20;3.10;;;21.10;82.90;;;;;;4992529;28;20207;-84
2023/06/19 04:19:32;;;;;;;4.23;2.53;;;21.10;81.30;;;;;;5001327;28;20237;-83
2023/06/19 04:21:57;;;;;;;5.10;3.50;;;21.10;55.80;;;;;;5007127;28;20266;-84
2023/06/19 04:24:23;;;;;;;6.13;3.00;;;21.20;35.70;;;;;;4999389;28;20256;-84
2023/06/19 04:26:48;;;;;;;5.30;3.20;;;21.20;25.20;;;;;;4998887;28;20199;-84
2023/06/19 04:29:16;;;;;;;4.43;3.40;;;21.20;29.10;;;;;;5000708;28;20212;-83
2023/06/19 04:31:46;;;;;;;3.60;3.07;;;21.20;48.90;;;;;;5000762;28;20180;-84
2023/06/19 04:34:14;;;;;;;3.40;3.10;;;21.30;63.00;;;;;;4999816;28;20424;-84
2023/06/19 04:36:40;;;;;;;6.00;2.80;;;21.30;66.70;;;;;;5000064;28;20454;-81
2023/06/19 04:39:06;;;;;;;4.57;2.73;;;21.30;30.00;;;;;;5000020;28;20513;-83
2023/06/19 04:41:32;;;;;;;4.40;3.03;;;21.40;24.80;;;;;;4990066;28;20999;-83
2023/06/19 04:43:57;;;;;;;3.93;2.63;;;21.40;9.20;;;;;;5000272;28;20195;-83
2023/06/19 04:46:23;;;;;;;3.40;3.00;;;21.50;1.00;;;;;;5000591;28;20213;-84
2023/06/19 04:48:51;;;;;;;4.17;3.37;;;21.50;1.00;;;;;;5000247;28;20297;-83
2023/06/19 04:51:20;;;;;;;4.17;2.70;;;21.60;1.00;;;;;;5002882;28;20291;-84
2023/06/19 04:53:49;;;;;;;4.37;3.17;;;21.60;1.00;;;;;;4999021;28;20474;-84
2023/06/19 04:56:15;;;;;;;3.37;3.07;;;21.70;1.00;;;;;;4998259;28;20491;-83
2023/06/19 04:58:46;;;;;;;4.30;3.10;;;21.80;1.00;;;;;;4997978;28;21004;-84
2023/06/19 05:01:15;;;;;;;3.40;2.80;;;21.80;1.00;;;;;;5000066;28;20189;-84
2023/06/19 05:03:45;;;;;;;6.03;3.40;;;21.90;1.00;;;;;;4998972;28;20891;-83
2023/06/19 05:06:11;;;;;;;4.50;3.40;;;22.00;1.00;;;;;;4999822;28;20939;-84
2023/06/19 05:08:36;;;;;;;4.13;2.90;;;22.10;1.00;;;;;;5000201;28;20423;-84
2023/06/19 05:11:02;;;;;;;5.80;2.97;;;22.20;1.00;;;;;;5000257;28;20414;-82
2023/06/19 05:13:27;;;;;;;4.83;2.67;;;22.40;1.00;;;;;;5000844;28;20183;-83
2023/06/19 05:15:53;;;;;;;5.20;3.20;;;22.60;1.00;;;;;;4985555;28;20253;-84
2023/06/19 05:18:18;;;;;;;4.73;3.40;;;22.80;1.00;;;;;;5004041;28;20242;-84
2023/06/19 05:20:44;;;;;;;3.30;2.63;;;23.00;99.90;;;;;;5004576;28;20551;-84
2023/06/19 05:23:10;;;;;;;4.13;2.90;;;23.20;99.90;;;;;;5003024;28;20646;-84
2023/06/19 05:25:36;;;;;;;5.63;3.00;;;23.40;99.90;;;;;;5003865;28;20423;-84
2023/06/19 05:28:01;;;;;;;6.23;2.83;;;23.60;99.90;;;;;;4992323;28;20675;-84
2023/06/19 05:30:27;;;;;;;4.30;2.80;;;23.90;99.90;;;;;;4994368;28;20591;-84
2023/06/19 05:32:52;;;;;;;3.10;2.80;;;24.20;99.90;;;;;;4994628;28;20653;-82
2023/06/19 05:35:18;;;;;;;3.47;2.93;;;24.30;99.90;;;;;;4983816;28;20276;-84
2023/06/19 05:37:45;;;;;;;3.53;3.13;;;24.30;99.90;;;;;;4983100;28;20185;-84
2023/06/19 05:40:11;;;;;;;4.50;2.90;;;24.30;99.90;;;;;;4991913;28;20210;-84
2023/06/19 05:42:36;;;;;;;4.00;2.33;;;24.20;99.90;;;;;;4994643;28;20774;-85
2023/06/19 05:45:03;;;;;;;5.00;3.30;;;24.20;99.90;;;;;;4992132;28;20536;-83
2023/06/19 05:47:30;;;;;;;3.10;2.73;;;24.10;99.90;;;;;;4988941;28;20268;-84
2023/06/19 05:49:56;;;;;;;4.10;2.93;;;24.00;99.90;;;;;;4999467;28;20855;-82
2023/06/19 05:52:22;;;;;;;2.90;2.30;;;23.90;99.90;;;;;;4985645;28;20513;-84
2023/06/19 05:54:47;;;;;;;5.30;2.50;;;23.80;99.90;;;;;;4997727;28;20883;-85
2023/06/19 05:57:15;;;;;;;6.10;3.00;;;23.60;99.90;;;;;;4992817;28;20257;-85
2023/06/19 05:59:41;;;;;;;3.80;3.33;;;23.40;99.90;;;;;;4985114;28;20227;-84
2023/06/19 06:02:07;;;;;;;2.93;2.30;;;23.30;99.90;;;;;;4994480;28;21029;-84
2023/06/19 06:04:34;;;;;;;3.20;2.60;;;23.30;99.90;;;;;;4992550;28;20279;-83
2023/06/19 06:07:00;;;;;;;2.90;2.60;;;23.40;99.90;;;;;;4995956;28;20469;-83
2023/06/19 06:09:26;;;;;;;5.77;2.50;;;23.80;99.90;;;;;;4979825;28;20444;-83
2023/06/19 06:11:52;;;;;;;4.77;2.43;;;24.00;99.90;;;;;;4990200;28;20211;-83
2023/06/19 06:14:18;;;;;;;5.00;2.77;;;24.00;99.90;;;;;;4994057;28;20449;-82
2023/06/19 06:16:43;;;;;;;3.93;2.20;;;23.90;99.90;;;;;;5010596;28;20677;-82
2023/06/19 06:19:09;;;;;;;4.97;2.97;;;23.70;99.90;;;;;;4994220;28;20703;-84
2023/06/19 06:21:34;;;;;;;3.83;3.20;;;23.60;99.90;;;;;;4993497;28;20911;-83
2023/06/19 06:24:00;;;;;;;4.07;2.80;;;23.50;99.90;;;;;;5001812;28;20683;-83
2023/06/19 06:26:27;;;;;;;4.43;3.50;;;23.50;99.90;;;;;;5000808;28;20225;-83
2023/06/19 06:28:53;;;;;;;3.10;2.80;;;23.60;99.90;;;;;;4995450;28;20214;-83
2023/06/19 06:31:18;;;;;;;4.60;2.90;;;23.70;99.90;;;;;;4992884;28;20969;-83
2023/06/19 06:33:44;;;;;;;4.20;2.60;;;23.70;99.90;;;;;;4996679;28;20232;-84
2023/06/19 06:36:10;;;;;;;5.20;3.93;;;23.70;99.90;;;;;;4995215;28;20186;-83
2023/06/19 06:38:35;;;;;;;6.00;3.80;;;23.50;99.90;;;;;;4998490;28;20187;-83
2023/06/19 06:41:01;;;;;;;3.90;3.60;;;23.30;99.90;;;;;;4996116;28;20181;-83
2023/06/19 06:43:26;;;;;;;11.23;4.60;;;23.00;1.00;;;;;;4998977;28;20250;-83
2023/06/19 06:45:52;;;;;;;6.40;3.90;;;22.70;1.00;;;;;;4998779;28;20214;-83
2023/06/19 06:48:18;;;;;;;4.63;3.90;;;22.50;30.00;;;;;;4996249;28;20221;-83
2023/06/19 06:50:43;;;;;;;4.30;3.63;;;22.30;99.90;;;;;;4990603;28;20381;-83
2023/06/19 06:53:09;;;;;;;5.00;3.83;;;22.10;1.00;;;;;;4997728;28;20565;-83
2023/06/19 06:55:34;;;;;;;4.37;3.97;;;22.00;1.00;;;;;;4990246;28;20537;-83
2023/06/19 06:58:00;;;;;;;5.50;4.03;;;21.90;33.70;;;;;;4986892;28;20205;-83
2023/06/19 07:00:25;;;;;;;5.23;4.20;;;21.90;99.90;;;;;;4996703;28;20210;-83
2023/06/19 07:02:51;;;;;;;5.00;3.90;;;21.80;99.90;;;;;;5000126;28;20198;-83
2023/06/19 07:05:17;;;;;;;3.90;3.20;;;21.80;99.90;;;;;;4995976;28;20187;-83
2023/06/19 07:07:42;;;;;;;4.73;4.07;;;21.90;99.90;;;;;;4995432;28;20298;-83
2023/06/19 07:10:08;;;;;;;7.47;3.50;;;22.10;99.90;;;;;;4997264;28;20217;-83
2023/06/19 07:12:34;;;;;;;6.70;3.70;;;22.30;96.60;;;;;;4991323;28;20658;-83
2023/06/19 07:15:00;;;;;;;4.93;4.30;;;22.50;1.00;;;;;;4994138;28;20471;-82
2023/06/19 07:17:25;;;;;;;5.60;4.10;;;22.80;1.00;;;;;;4993107;28;20244;-83
2023/06/19 07:19:50;;;;;;;5.00;3.90;;;23.10;99.90;;;;;;4996097;28;20253;-83
2023/06/19 07:22:16;;;;;;;6.73;3.73;;;23.50;99.90;;;;;;4995566;28;20338;-82
2023/06/19 07:24:42;;;;;;;7.53;4.27;;;24.00;1.00;;;;;;4996869;28;20195;-83
2023/06/19 07:27:07;;;;;;;6.30;3.80;;;24.20;1.00;;;;;;4999305;28;20227;-84
2023/06/19 07:29:33;;;;;;;4.03;3.23;;;24.50;1.00;;;;;;4996591;28;20258;-83
2023/06/19 07:32:00;;;;;;;4.70;3.43;;;26.80;99.90;;;;;;4996398;28;20188;-84
2023/06/19 07:34:26;;;;;;;4.40;3.40;;;29.70;99.90;;;;;;4995711;28;20179;-84
2023/06/19 07:36:51;;;;;;;3.47;3.17;;;31.70;99.90;;;;;;4998517;28;20446;-84
2023/06/19 07:39:17;;;;;;;4.00;3.43;;;32.80;99.90;;;;;;4999060;28;20212;-84
2023/06/19 07:41:42;;;;;;;3.50;3.17;;;33.70;99.90;;;;;;4996429;28;20196;-84
2023/06/19 07:44:08;;;;;;;5.33;3.33;;;34.10;99.90;;;;;;4987695;28;20246;-82
2023/06/19 07:46:33;;;;;;;7.20;3.67;;;34.00;99.90;;;;;;4988285;28;20275;-84
2023/06/19 07:48:59;;;;;;;5.80;2.93;;;32.80;99.90;;;;;;4988550;28;20223;-84
2023/06/19 07:51:24;;;;;;;3.90;2.80;;;34.10;99.90;;;;;;4987199;28;20247;-84
2023/06/19 07:53:50;;;;;;;3.20;2.83;;;36.20;98.60;;;;;;4995349;28;20585;-84
2023/06/19 07:56:15;;;;;;;7.40;3.07;;;37.20;92.40;;;;;;5002509;28;20531;-85
2023/06/19 07:58:41;;;;;;;8.70;3.70;;;37.20;81.00;;;;;;4998193;28;20183;-84
2023/06/19 08:01:06;;;;;;;5.13;3.53;;;35.20;60.80;;;;;;5000081;28;20184;-82
2023/06/19 08:03:32;;;;;;;6.70;3.40;;;33.70;53.90;;;;;;5000689;28;20804;-84
2023/06/19 08:05:57;;;;;;;7.73;3.80;;;32.20;49.30;;;;;;4993563;28;20196;-84
2023/06/19 08:08:23;;;;;;;5.63;3.40;;;30.90;47.20;;;;;;5000012;28;20223;-84
2023/06/19 08:10:48;;;;;;;4.73;3.80;;;29.90;45.70;;;;;;5001130;28;20205;-84
2023/06/19 08:13:14;;;;;;;4.27;3.33;;;29.30;46.80;;;;;;5000719;28;20199;-84
2023/06/19 08:15:39;;;;;;;8.17;3.80;;;28.90;48.70;;;;;;4998660;28;20224;-82
2023/06/19 08:18:05;;;;;;;5.50;4.47;;;28.70;50.50;;;;;;5000309;28;20184;-83
2023/06/19 08:20:30;;;;;;;5.47;4.17;;;29.00;54.00;;;;;;4992716;28;20223;-81
2023/06/19 08:22:56;;;;;;;11.53;4.27;;;29.80;56.80;;;;;;4985960;28;20195;-83
2023/06/19 08:25:25;;;;;;;4.63;3.67;;;30.60;58.50;;;;;;4990524;28;20192;-81
2023/06/19 08:27:50;;;;;;;5.20;3.20;;;30.90;58.40;;;;;;4988543;28;20242;-81
2023/06/19 08:30:16;;;;;;;5.63;3.20;;;31.40;57.10;;;;;;4989209;28;20447;-82
2023/06/19 08:32:43;;;;;;;4.87;3.70;;;32.30;58.90;;;;;;4988293;28;20176;-84
2023/06/19 08:35:09;;;;;;;8.63;3.50;;;34.20;60.20;;;;;;4992131;28;20184;-81
2023/06/19 08:37:34;;;;;;;7.37;3.77;;;35.80;57.30;;;;;;4993352;28;20493;-82
2023/06/19 08:40:00;;;;;;;3.60;3.20;;;35.80;49.90;;;;;;4993676;28;20300;-84
2023/06/19 08:42:26;;;;;;;6.17;3.70;;;35.80;45.30;;;;;;4992187;28;20202;-82
2023/06/19 08:44:51;;;;;;;4.10;3.30;;;36.10;42.90;;;;;;4997563;28;20222;-83
2023/06/19 08:47:17;;;;;;;5.00;3.63;;;35.30;37.30;;;;;;4985022;28;20239;-85
2023/06/19 08:49:42;;;;;;;6.40;3.80;;;35.80;37.20;;;;;;4995680;28;20282;-85
2023/06/19 08:52:08;;;;;;;7.83;3.00;;;38.00;39.70;;;;;;4996820;28;20192;-84
2023/06/19 08:54:33;;;;;;;4.27;3.27;;;40.90;36.40;;;;;;4992484;28;20238;-82
2023/06/19 08:57:02;;;;;;;5.17;3.40;;;42.30;30.10;;;;;;4991282;28;20196;-84
2023/06/19 08:59:31;;;;;;;3.83;3.10;;;43.70;24.90;;;;;;4998116;28;20227;-84
2023/06/19 09:01:57;;;;;;;5.20;3.20;;;45.10;20.10;;;;;;4996805;28;20456;-84
2023/06/19 09:04:28;;;;;;;3.40;3.10;;;45.60;6.20;;;;;;4992461;28;20526;-84
2023/06/19 09:06:56;;;;;;;5.73;3.13;;;44.10;1.00;;;;;;4999475;28;20269;-84
2023/06/19 09:09:23;;;;;;;5.07;3.10;;;43.30;1.00;;;;;;4992458;28;20460;-83
2023/06/19 09:12:11;;;;;;;5.30;3.77;;;41.30;1.00;;;;;;4985518;28;20449;-83
2023/06/19 09:14:38;;;;;;;9.10;3.27;;;39.20;1.00;;;;;;4991004;28;20974;-83
2023/06/19 09:17:05;;;;;;;4.50;3.30;;;38.80;1.00;;;;;;4997272;28;20509;-84
2023/06/19 09:19:31;;;;;;;6.27;4.00;;;38.80;1.00;;;;;;4990415;28;21012;-84
2023/06/19 09:22:18;;;;;;;4.70;3.67;;;38.90;1.00;;;;;;4988055;28;20442;-84
2023/06/19 09:24:44;;;;;;;5.33;3.20;;;40.00;1.00;;;;;;4989328;28;20506;-83
2023/06/19 09:27:17;;;;;;;6.93;3.63;;;41.00;1.00;;;;;;4991615;28;20510;-84
2023/06/19 09:29:45;;;;;;;3.80;2.90;;;42.10;1.00;;;;;;4992256;28;20199;-83
2023/06/19 09:32:21;;;;;;;5.40;3.53;;;43.00;1.00;;;;;;4995843;28;20419;-83
2023/06/19 09:34:49;;;;;;;5.47;3.57;;;43.80;1.00;;;;;;4993948;28;20434;-83
2023/06/19 09:37:14;;;;;;;6.20;3.10;;;44.20;1.00;;;;;;4987554;28;20488;-84
2023/06/19 09:39:41;;;;;;;5.00;3.53;;;44.60;1.00;;;;;;4989437;28;20462;-84
2023/06/19 09:42:10;;;;;;;6.10;3.57;;;45.00;1.00;;;;;;4995423;28;20199;-84
2023/06/19 09:44:43;;;;;;;7.70;3.60;;;45.00;1.00;;;;;;4988830;28;20434;-82
2023/06/19 09:47:22;;;;;;;6.17;3.87;;;44.80;1.00;;;;;;4989486;28;20494;-83
2023/06/19 09:49:50;;;;;;;4.73;2.97;;;44.50;1.00;;;;;;4987953;28;21024;-83
2023/06/19 09:52:16;;;;;;;5.70;3.90;;;44.30;1.00;;;;;;4990521;28;20435;-82
2023/06/19 09:54:46;;;;;;;3.90;3.43;;;44.10;1.00;;;;;;4985835;28;20466;-83
2023/06/19 09:57:12;;;;;;;4.60;3.30;;;44.10;1.00;;;;;;4987533;28;20439;-82
2023/06/19 09:59:41;;;;;;;4.13;3.67;;;44.10;1.00;;;;;;4990406;28;20516;-83
2023/06/19 10:02:07;;;;;;;5.40;3.23;;;44.10;1.00;;;;;;4993853;28;20669;-83
2023/06/19 10:05:08;;;;;;;4.37;3.20;;;44.10;1.00;;;;;;4988839;28;20709;-84
2023/06/19 10:07:35;;;;;;;7.17;3.77;;;44.00;1.00;;;;;;4971138;28;20474;-84
2023/06/19 10:10:06;;;;;;;4.43;3.20;;;44.10;1.00;;;;;;4996193;28;20462;-84
2023/06/19 10:12:39;;;;;;;3.60;2.90;;;44.00;1.00;;;;;;4991889;28;20530;-84
2023/06/19 10:15:29;;;;;;;3.97;3.33;;;43.90;1.00;;;;;;4995473;28;20481;-84
2023/06/19 10:18:05;;;;;;;3.87;3.57;;;43.30;1.00;;;;;;4985101;28;20475;-85
2023/06/19 10:20:41;;;;;;;6.63;3.60;;;43.00;1.00;;;;;;4995262;28;20462;-84
2023/06/19 10:23:06;;;;;;;4.70;3.50;;;43.00;1.00;;;;;;4987373;28;21029;-85
2023/06/19 10:25:34;;;;;;;4.40;3.40;;;43.00;1.00;;;;;;4991171;28;20436;-84
2023/06/19 10:28:00;;;;;;;5.00;3.27;;;42.60;1.00;;;;;;4997542;28;20207;-84
2023/06/19 10:30:26;;;;;;;4.20;3.73;;;42.60;1.00;;;;;;4998430;28;20627;-82
2023/06/19 10:32:51;;;;;;;4.90;3.50;;;42.80;1.00;;;;;;4999014;28;20470;-84
2023/06/19 10:35:17;;;;;;;4.20;3.80;;;42.60;1.00;;;;;;4999027;28;20199;-83
2023/06/19 10:37:44;;;;;;;3.83;3.47;;;41.40;1.00;;;;;;4993361;28;20682;-84
2023/06/19 10:40:12;;;;;;;5.83;3.70;;;40.40;1.00;;;;;;4989907;28;20490;-84
2023/06/19 10:42:38;;;;;;;8.03;4.00;;;40.00;1.00;;;;;;4994148;28;20479;-83
2023/06/19 10:45:05;;;;;;;4.33;3.37;;;40.30;1.00;;;;;;4993495;28;20465;-83
2023/06/19 10:47:32;;;;;;;13.13;4.07;;;40.60;1.00;;;;;;4992281;28;20593;-84
2023/06/19 10:49:58;;;;;;;3.97;3.57;;;40.40;1.00;;;;;;4993509;28;20577;-82
2023/06/19 10:52:24;;;;;;;4.23;3.67;;;40.40;1.00;;;;;;4992373;28;20474;-82
2023/06/19 10:54:54;;;;;;;5.73;4.37;;;40.30;1.00;;;;;;4998419;28;20194;-83
2023/06/19 10:57:29;;;;;;;5.23;3.70;;;40.40;1.00;;;;;;4989197;28;20446;-83
2023/06/19 10:59:55;;;;;;;4.23;3.83;;;40.30;1.00;;;;;;4986806;28;20467;-81
2023/06/19 11:02:21;;;;;;;5.17;3.70;;;40.30;1.00;;;;;;4987366;28;20484;-81
2023/06/19 11:04:47;;;;;;;4.40;4.00;;;40.70;1.00;;;;;;4991014;28;20192;-82
2023/06/19 11:07:12;;;;;;;5.27;4.13;;;40.60;1.00;;;;;;4991397;28;20220;-82
2023/06/19 11:09:38;;;;;;;5.57;3.77;;;40.70;1.00;;;;;;4994973;28;20212;-83
2023/06/19 11:12:07;;;;;;;6.23;3.70;;;40.70;1.00;;;;;;4990943;28;20188;-83
2023/06/19 11:14:39;;;;;;;7.43;3.50;;;40.80;1.00;;;;;;4988047;28;20460;-82
2023/06/19 11:17:08;;;;;;;4.47;3.77;;;40.50;1.00;;;;;;4999343;28;20179;-83
2023/06/19 11:19:33;;;;;;;5.10;3.90;;;40.80;1.00;;;;;;4986177;28;20467;-82
2023/06/19 11:22:02;;;;;;;5.67;3.80;;;41.30;1.00;;;;;;4988069;28;20455;-83
2023/06/19 11:24:28;;;;;;;4.23;3.50;;;41.50;1.00;;;;;;4990875;28;21199;-82
2023/06/19 11:26:56;;;;;;;7.87;3.73;;;41.70;1.00;;;;;;4997230;28;20525;-84
2023/06/19 11:29:28;;;;;;;9.33;3.60;;;42.00;1.00;;;;;;4996767;28;20466;-83
2023/06/19 11:32:06;;;;;;;4.50;3.50;;;42.20;1.00;;;;;;4992246;28;20982;-83
2023/06/19 11:34:33;;;;;;;12.93;4.70;;;42.10;1.00;;;;;;4994127;28;20928;-83
2023/06/19 11:36:59;;;;;;;5.13;3.83;;;42.20;1.00;;;;;;4991088;28;20454;-83
2023/06/19 11:39:24;;;;;;;4.57;4.17;;;42.10;1.00;;;;;;4992653;28;20834;-83
2023/06/19 11:41:51;;;;;;;6.70;3.90;;;41.90;1.00;;;;;;4999630;28;20202;-82
2023/06/19 11:44:16;;;;;;;6.67;4.07;;;41.70;1.00;;;;;;4995582;28;20611;-84
2023/06/19 11:46:42;;;;;;;6.70;3.47;;;41.00;1.00;;;;;;4993406;28;20499;-81
2023/06/19 11:49:08;;;;;;;4.60;4.00;;;40.60;1.00;;;;;;4989563;28;20238;-84
2023/06/19 11:51:34;;;;;;;7.13;3.50;;;40.40;1.00;;;;;;4985028;28;20183;-84
2023/06/19 11:53:59;;;;;;;5.47;3.93;;;40.30;1.00;;;;;;4993370;28;20313;-84
2023/06/19 11:56:25;;;;;;;4.87;3.80;;;40.10;1.00;;;;;;4991034;28;20194;-83
2023/06/19 11:58:50;;;;;;;4.07;3.43;;;40.10;1.00;;;;;;4987282;28;20203;-81
2023/06/19 12:01:16;;;;;;;3.77;3.47;;;40.10;1.00;;;;;;4985704;28;20184;-82
2023/06/19 12:03:41;;;;;;;6.83;3.93;;;39.80;1.00;;;;;;4986671;28;20617;-82
2023/06/19 12:06:07;;;;;;;4.73;3.93;;;39.40;1.00;;;;;;4988058;28;20188;-84
2023/06/19 12:08:33;;;;;;;6.20;3.87;;;39.10;1.00;;;;;;4995908;28;20226;-83
2023/06/19 12:10:59;;;;;;;5.17;3.87;;;38.70;1.00;;;;;;4993194;28;20191;-84
2023/06/19 12:13:24;;;;;;;8.23;4.37;;;38.30;1.00;;;;;;4991412;28;20550;-82
2023/06/19 12:15:50;;;;;;;4.73;4.23;;;37.90;1.00;;;;;;4989208;28;20187;-84
2023/06/19 12:18:15;;;;;;;4.90;4.30;;;37.50;1.00;;;;;;4987654;28;20191;-83
2023/06/19 12:20:41;;;;;;;30.30;5.27;;;37.20;1.00;;;;;;4979041;28;20694;-81
2023/06/19 12:23:06;;;;;;;5.87;3.97;;;37.00;1.00;;;;;;4988801;28;20230;-82
2023/06/19 12:25:32;;;;;;;6.50;4.30;;;36.60;1.00;;;;;;4993912;28;20259;-83
2023/06/19 12:27:57;;;;;;;7.00;4.60;;;36.40;1.00;;;;;;4991487;28;20199;-84
2023/06/19 12:30:23;;;;;;;6.10;4.30;;;36.60;1.00;;;;;;4993160;28;20203;-83
2023/06/19 12:32:49;;;;;;;8.87;4.47;;;36.80;1.00;;;;;;4985103;28;20183;-84
2023/06/19 12:35:15;;;;;;;9.10;4.47;;;37.30;1.00;;;;;;4995946;28;20194;-83
2023/06/19 12:37:40;;;;;;;5.53;3.97;;;37.90;1.00;;;;;;4993354;28;20998;-82
2023/06/19 12:40:10;;;;;;;5.17;4.50;;;38.30;1.00;;;;;;4997061;28;20748;-84
2023/06/19 12:42:36;;;;;;;5.00;4.47;;;38.70;1.00;;;;;;4997185;28;20201;-83
2023/06/19 12:45:03;;;;;;;6.13;4.23;;;39.00;1.00;;;;;;4992199;28;20451;-84
2023/06/19 12:47:28;;;;;;;4.83;4.20;;;39.20;1.00;;;;;;4996566;28;20318;-84